Avon, Utah
Current Conditions -  °F | °C
As of 1:15 AM on Friday 28 Nov 2014 (Local Time) from KBMC Reporting Station
Clear Clear  
Wind Chill: 37°   Ceiling: Unl
Heat Index: 37°   Visibility: 10mi
Dew Point: 29°   Wind: 0mph
Humidity: 75%   Direction: NA
Pressure: 30.09"   Gusts: NA
Location:  41.5397°N, 111.856°W
Report Text: KBMC 280815Z AUTO 00000KT 10SM CLR 03/M01 A3009 RMK AO1 T00261014
Loading
Personal Weather Stations






























Interactive Weather Map New forecast layout! Learn more

10-Day Weather Forecast

Advertisements
Track Severe Weather on mobile